sensor_id;sensor_type;location;lat;lon;timestamp;P1;durP1;ratioP1;P2;durP2;ratioP2
11604;SDS011;5858;43.076;25.626;2023-04-24T00:02:28;5.83;;;3.40;;
11604;SDS011;5858;43.076;25.626;2023-04-24T00:05:05;4.50;;;3.20;;
11604;SDS011;5858;43.076;25.626;2023-04-24T00:07:32;4.07;;;3.03;;
11604;SDS011;5858;43.076;25.626;2023-04-24T00:10:00;7.27;;;3.23;;
11604;SDS011;5858;43.076;25.626;2023-04-24T00:12:29;9.20;;;3.20;;
11604;SDS011;5858;43.076;25.626;2023-04-24T00:14:57;3.47;;;3.17;;
11604;SDS011;5858;43.076;25.626;2023-04-24T00:17:26;6.83;;;3.40;;
11604;SDS011;5858;43.076;25.626;2023-04-24T00:19:58;5.90;;;3.40;;
11604;SDS011;5858;43.076;25.626;2023-04-24T00:22:29;5.27;;;3.63;;
11604;SDS011;5858;43.076;25.626;2023-04-24T00:24:57;6.33;;;3.70;;
11604;SDS011;5858;43.076;25.626;2023-04-24T00:27:25;8.43;;;3.70;;
11604;SDS011;5858;43.076;25.626;2023-04-24T00:29:53;9.07;;;3.03;;
11604;SDS011;5858;43.076;25.626;2023-04-24T00:32:20;12.10;;;3.87;;
11604;SDS011;5858;43.076;25.626;2023-04-24T00:34:49;5.93;;;3.90;;
11604;SDS011;5858;43.076;25.626;2023-04-24T00:37:16;6.07;;;3.20;;
11604;SDS011;5858;43.076;25.626;2023-04-24T00:39:43;5.20;;;3.63;;
11604;SDS011;5858;43.076;25.626;2023-04-24T00:42:14;6.83;;;3.50;;
11604;SDS011;5858;43.076;25.626;2023-04-24T00:44:41;5.40;;;2.83;;
11604;SDS011;5858;43.076;25.626;2023-04-24T00:47:08;3.73;;;3.20;;
11604;SDS011;5858;43.076;25.626;2023-04-24T00:49:37;3.43;;;3.00;;
11604;SDS011;5858;43.076;25.626;2023-04-24T00:52:05;4.53;;;3.50;;
11604;SDS011;5858;43.076;25.626;2023-04-24T00:54:34;6.43;;;3.90;;
11604;SDS011;5858;43.076;25.626;2023-04-24T00:57:01;6.90;;;3.90;;
11604;SDS011;5858;43.076;25.626;2023-04-24T00:59:29;3.83;;;3.47;;
11604;SDS011;5858;43.076;25.626;2023-04-24T01:01:56;8.57;;;4.27;;
11604;SDS011;5858;43.076;25.626;2023-04-24T01:04:24;9.83;;;4.47;;
11604;SDS011;5858;43.076;25.626;2023-04-24T01:06:52;5.93;;;4.40;;
11604;SDS011;5858;43.076;25.626;2023-04-24T01:09:23;8.77;;;4.67;;
11604;SDS011;5858;43.076;25.626;2023-04-24T01:11:50;7.50;;;4.30;;
11604;SDS011;5858;43.076;25.626;2023-04-24T01:14:17;7.90;;;4.57;;
11604;SDS011;5858;43.076;25.626;2023-04-24T01:16:44;6.23;;;3.80;;
11604;SDS011;5858;43.076;25.626;2023-04-24T01:19:11;6.10;;;4.27;;
11604;SDS011;5858;43.076;25.626;2023-04-24T01:21:41;11.20;;;4.30;;
11604;SDS011;5858;43.076;25.626;2023-04-24T01:24:11;8.17;;;4.33;;
11604;SDS011;5858;43.076;25.626;2023-04-24T01:26:39;8.13;;;3.97;;
11604;SDS011;5858;43.076;25.626;2023-04-24T01:29:06;6.83;;;3.20;;
11604;SDS011;5858;43.076;25.626;2023-04-24T01:31:35;8.03;;;3.83;;
11604;SDS011;5858;43.076;25.626;2023-04-24T01:34:03;3.93;;;3.27;;
11604;SDS011;5858;43.076;25.626;2023-04-24T01:36:30;7.37;;;3.23;;
11604;SDS011;5858;43.076;25.626;2023-04-24T01:39:00;4.73;;;3.13;;
11604;SDS011;5858;43.076;25.626;2023-04-24T01:41:29;6.10;;;3.17;;
11604;SDS011;5858;43.076;25.626;2023-04-24T01:43:56;3.43;;;3.10;;
11604;SDS011;5858;43.076;25.626;2023-04-24T01:46:24;4.90;;;3.47;;
11604;SDS011;5858;43.076;25.626;2023-04-24T01:48:51;5.97;;;3.20;;
11604;SDS011;5858;43.076;25.626;2023-04-24T01:51:18;5.27;;;3.63;;
11604;SDS011;5858;43.076;25.626;2023-04-24T01:53:46;5.03;;;3.90;;
11604;SDS011;5858;43.076;25.626;2023-04-24T01:56:13;7.40;;;4.30;;
11604;SDS011;5858;43.076;25.626;2023-04-24T01:58:42;4.83;;;4.07;;
11604;SDS011;5858;43.076;25.626;2023-04-24T02:01:10;8.50;;;4.60;;
11604;SDS011;5858;43.076;25.626;2023-04-24T02:03:42;6.07;;;4.77;;
11604;SDS011;5858;43.076;25.626;2023-04-24T02:06:09;7.60;;;4.27;;
11604;SDS011;5858;43.076;25.626;2023-04-24T02:08:36;7.80;;;4.30;;
11604;SDS011;5858;43.076;25.626;2023-04-24T02:11:03;4.53;;;3.90;;
11604;SDS011;5858;43.076;25.626;2023-04-24T02:13:31;8.47;;;4.20;;
11604;SDS011;5858;43.076;25.626;2023-04-24T02:15:59;4.80;;;3.60;;
11604;SDS011;5858;43.076;25.626;2023-04-24T02:18:26;9.67;;;5.63;;
11604;SDS011;5858;43.076;25.626;2023-04-24T02:20:53;11.50;;;5.30;;
11604;SDS011;5858;43.076;25.626;2023-04-24T02:23:24;14.03;;;6.73;;
11604;SDS011;5858;43.076;25.626;2023-04-24T02:25:52;9.53;;;5.37;;
11604;SDS011;5858;43.076;25.626;2023-04-24T02:28:19;8.37;;;5.80;;
11604;SDS011;5858;43.076;25.626;2023-04-24T02:30:46;11.90;;;5.73;;
11604;SDS011;5858;43.076;25.626;2023-04-24T02:33:15;9.57;;;5.10;;
11604;SDS011;5858;43.076;25.626;2023-04-24T02:35:42;8.50;;;5.10;;
11604;SDS011;5858;43.076;25.626;2023-04-24T02:38:09;9.17;;;4.57;;
11604;SDS011;5858;43.076;25.626;2023-04-24T02:40:36;7.23;;;4.47;;
11604;SDS011;5858;43.076;25.626;2023-04-24T02:43:04;8.07;;;4.90;;
11604;SDS011;5858;43.076;25.626;2023-04-24T02:45:31;8.27;;;4.57;;
11604;SDS011;5858;43.076;25.626;2023-04-24T02:47:59;7.27;;;4.13;;
11604;SDS011;5858;43.076;25.626;2023-04-24T02:50:29;5.63;;;3.97;;
11604;SDS011;5858;43.076;25.626;2023-04-24T02:52:57;5.07;;;4.53;;
11604;SDS011;5858;43.076;25.626;2023-04-24T02:55:24;8.40;;;4.20;;
11604;SDS011;5858;43.076;25.626;2023-04-24T02:57:51;7.37;;;3.73;;
11604;SDS011;5858;43.076;25.626;2023-04-24T03:00:18;7.27;;;4.13;;
11604;SDS011;5858;43.076;25.626;2023-04-24T03:02:47;6.10;;;3.77;;
11604;SDS011;5858;43.076;25.626;2023-04-24T03:05:14;9.20;;;5.00;;
11604;SDS011;5858;43.076;25.626;2023-04-24T03:07:43;8.77;;;4.40;;
11604;SDS011;5858;43.076;25.626;2023-04-24T03:10:10;7.03;;;3.93;;
11604;SDS011;5858;43.076;25.626;2023-04-24T03:12:37;12.53;;;4.60;;
11604;SDS011;5858;43.076;25.626;2023-04-24T03:15:05;11.13;;;5.50;;
11604;SDS011;5858;43.076;25.626;2023-04-24T03:17:32;8.73;;;4.77;;
11604;SDS011;5858;43.076;25.626;2023-04-24T03:20:00;10.13;;;5.03;;
11604;SDS011;5858;43.076;25.626;2023-04-24T03:22:27;6.63;;;4.43;;
11604;SDS011;5858;43.076;25.626;2023-04-24T03:24:56;11.17;;;4.60;;
11604;SDS011;5858;43.076;25.626;2023-04-24T03:27:23;4.73;;;3.30;;
11604;SDS011;5858;43.076;25.626;2023-04-24T03:29:50;7.23;;;4.70;;
11604;SDS011;5858;43.076;25.626;2023-04-24T03:32:20;13.90;;;4.73;;
11604;SDS011;5858;43.076;25.626;2023-04-24T03:34:47;9.23;;;4.97;;
11604;SDS011;5858;43.076;25.626;2023-04-24T03:37:15;8.77;;;4.67;;
11604;SDS011;5858;43.076;25.626;2023-04-24T03:39:43;10.83;;;4.37;;
11604;SDS011;5858;43.076;25.626;2023-04-24T03:42:12;7.63;;;5.80;;
11604;SDS011;5858;43.076;25.626;2023-04-24T03:44:53;13.27;;;5.83;;
11604;SDS011;5858;43.076;25.626;2023-04-24T03:47:26;10.87;;;6.10;;
11604;SDS011;5858;43.076;25.626;2023-04-24T03:49:57;8.47;;;5.30;;
11604;SDS011;5858;43.076;25.626;2023-04-24T03:52:24;6.13;;;4.80;;
11604;SDS011;5858;43.076;25.626;2023-04-24T03:54:54;10.13;;;6.10;;
11604;SDS011;5858;43.076;25.626;2023-04-24T03:57:28;11.73;;;6.90;;
11604;SDS011;5858;43.076;25.626;2023-04-24T03:59:56;12.87;;;6.10;;
11604;SDS011;5858;43.076;25.626;2023-04-24T04:02:37;11.33;;;5.40;;
11604;SDS011;5858;43.076;25.626;2023-04-24T04:05:04;13.93;;;6.53;;
11604;SDS011;5858;43.076;25.626;2023-04-24T04:07:33;10.47;;;6.20;;
11604;SDS011;5858;43.076;25.626;2023-04-24T04:10:00;11.17;;;6.07;;
11604;SDS011;5858;43.076;25.626;2023-04-24T04:12:30;10.07;;;6.70;;
11604;SDS011;5858;43.076;25.626;2023-04-24T04:14:58;14.33;;;6.80;;
11604;SDS011;5858;43.076;25.626;2023-04-24T04:17:28;11.83;;;6.30;;
11604;SDS011;5858;43.076;25.626;2023-04-24T04:19:56;7.93;;;5.90;;
11604;SDS011;5858;43.076;25.626;2023-04-24T04:22:25;15.03;;;5.57;;
11604;SDS011;5858;43.076;25.626;2023-04-24T04:24:53;16.30;;;7.23;;
11604;SDS011;5858;43.076;25.626;2023-04-24T04:27:20;16.13;;;6.67;;
11604;SDS011;5858;43.076;25.626;2023-04-24T04:29:52;15.83;;;7.00;;
11604;SDS011;5858;43.076;25.626;2023-04-24T04:32:21;10.97;;;6.37;;
11604;SDS011;5858;43.076;25.626;2023-04-24T04:34:51;15.63;;;8.03;;
11604;SDS011;5858;43.076;25.626;2023-04-24T04:37:30;19.30;;;7.63;;
11604;SDS011;5858;43.076;25.626;2023-04-24T04:40:21;16.07;;;7.00;;
11604;SDS011;5858;43.076;25.626;2023-04-24T04:43:16;11.87;;;6.70;;
11604;SDS011;5858;43.076;25.626;2023-04-24T04:48:46;17.07;;;6.80;;
11604;SDS011;5858;43.076;25.626;2023-04-24T04:51:14;17.57;;;7.00;;
11604;SDS011;5858;43.076;25.626;2023-04-24T04:53:53;12.73;;;6.47;;
11604;SDS011;5858;43.076;25.626;2023-04-24T04:56:31;18.43;;;7.27;;
11604;SDS011;5858;43.076;25.626;2023-04-24T04:59:09;13.13;;;6.57;;
11604;SDS011;5858;43.076;25.626;2023-04-24T05:01:44;11.35;;;5.30;;
11604;SDS011;5858;43.076;25.626;2023-04-24T05:07:36;7.68;;;3.67;;
11604;SDS011;5858;43.076;25.626;2023-04-24T05:10:04;12.57;;;5.07;;
11604;SDS011;5858;43.076;25.626;2023-04-24T05:12:38;9.50;;;4.90;;
11604;SDS011;5858;43.076;25.626;2023-04-24T05:15:06;8.70;;;5.13;;
11604;SDS011;5858;43.076;25.626;2023-04-24T05:17:38;11.80;;;4.10;;
11604;SDS011;5858;43.076;25.626;2023-04-24T05:23:38;10.80;;;4.47;;
11604;SDS011;5858;43.076;25.626;2023-04-24T05:26:07;11.65;;;4.95;;
11604;SDS011;5858;43.076;25.626;2023-04-24T05:28:34;10.35;;;4.60;;
11604;SDS011;5858;43.076;25.626;2023-04-24T05:31:02;10.07;;;5.25;;
11604;SDS011;5858;43.076;25.626;2023-04-24T05:33:33;10.02;;;5.50;;
11604;SDS011;5858;43.076;25.626;2023-04-24T05:36:01;8.85;;;5.68;;
11604;SDS011;5858;43.076;25.626;2023-04-24T05:38:30;10.00;;;5.55;;
11604;SDS011;5858;43.076;25.626;2023-04-24T05:40:58;10.65;;;6.07;;
11604;SDS011;5858;43.076;25.626;2023-04-24T05:43:27;9.85;;;6.97;;
11604;SDS011;5858;43.076;25.626;2023-04-24T05:45:58;12.25;;;6.40;;
11604;SDS011;5858;43.076;25.626;2023-04-24T05:48:42;8.70;;;7.00;;
11604;SDS011;5858;43.076;25.626;2023-04-24T05:51:19;10.32;;;6.13;;
11604;SDS011;5858;43.076;25.626;2023-04-24T05:53:47;12.07;;;5.45;;
11604;SDS011;5858;43.076;25.626;2023-04-24T05:56:40;8.80;;;5.97;;
11604;SDS011;5858;43.076;25.626;2023-04-24T06:02:17;9.73;;;5.68;;
11604;SDS011;5858;43.076;25.626;2023-04-24T06:05:05;11.18;;;5.22;;
11604;SDS011;5858;43.076;25.626;2023-04-24T06:07:39;10.27;;;6.00;;
11604;SDS011;5858;43.076;25.626;2023-04-24T06:10:09;14.45;;;5.50;;
11604;SDS011;5858;43.076;25.626;2023-04-24T06:12:38;10.88;;;6.15;;
11604;SDS011;5858;43.076;25.626;2023-04-24T06:15:06;13.10;;;6.18;;
11604;SDS011;5858;43.076;25.626;2023-04-24T06:17:34;10.35;;;5.45;;
11604;SDS011;5858;43.076;25.626;2023-04-24T06:20:01;6.93;;;5.20;;
11604;SDS011;5858;43.076;25.626;2023-04-24T06:22:31;10.52;;;6.47;;
11604;SDS011;5858;43.076;25.626;2023-04-24T06:25:00;7.55;;;4.80;;
11604;SDS011;5858;43.076;25.626;2023-04-24T06:27:27;6.45;;;4.70;;
11604;SDS011;5858;43.076;25.626;2023-04-24T06:29:56;9.70;;;4.72;;
11604;SDS011;5858;43.076;25.626;2023-04-24T06:32:23;9.32;;;4.63;;
11604;SDS011;5858;43.076;25.626;2023-04-24T06:34:55;9.02;;;4.70;;
11604;SDS011;5858;43.076;25.626;2023-04-24T06:37:24;8.65;;;4.32;;
11604;SDS011;5858;43.076;25.626;2023-04-24T06:39:52;6.60;;;3.95;;
11604;SDS011;5858;43.076;25.626;2023-04-24T06:42:34;10.13;;;4.50;;
11604;SDS011;5858;43.076;25.626;2023-04-24T06:45:10;8.00;;;4.07;;
11604;SDS011;5858;43.076;25.626;2023-04-24T06:47:39;12.98;;;4.22;;
11604;SDS011;5858;43.076;25.626;2023-04-24T06:50:24;7.70;;;6.30;;
11604;SDS011;5858;43.076;25.626;2023-04-24T06:52:51;9.25;;;5.18;;
11604;SDS011;5858;43.076;25.626;2023-04-24T06:55:18;6.50;;;4.15;;
11604;SDS011;5858;43.076;25.626;2023-04-24T06:57:47;7.60;;;4.60;;
11604;SDS011;5858;43.076;25.626;2023-04-24T07:00:27;25.65;;;6.03;;
11604;SDS011;5858;43.076;25.626;2023-04-24T07:02:59;9.93;;;6.53;;
11604;SDS011;5858;43.076;25.626;2023-04-24T07:05:39;6.13;;;4.28;;
11604;SDS011;5858;43.076;25.626;2023-04-24T07:08:21;9.27;;;4.80;;
11604;SDS011;5858;43.076;25.626;2023-04-24T07:11:08;5.35;;;4.60;;
11604;SDS011;5858;43.076;25.626;2023-04-24T07:13:38;7.15;;;4.72;;
11604;SDS011;5858;43.076;25.626;2023-04-24T07:16:07;7.35;;;5.03;;
11604;SDS011;5858;43.076;25.626;2023-04-24T07:18:34;7.80;;;4.35;;
11604;SDS011;5858;43.076;25.626;2023-04-24T07:21:02;6.35;;;4.05;;
11604;SDS011;5858;43.076;25.626;2023-04-24T07:23:32;6.70;;;4.47;;
11604;SDS011;5858;43.076;25.626;2023-04-24T07:26:00;6.93;;;4.10;;
11604;SDS011;5858;43.076;25.626;2023-04-24T07:28:27;5.20;;;3.92;;
11604;SDS011;5858;43.076;25.626;2023-04-24T07:30:57;6.05;;;4.13;;
11604;SDS011;5858;43.076;25.626;2023-04-24T07:33:25;8.38;;;4.07;;
11604;SDS011;5858;43.076;25.626;2023-04-24T07:35:52;4.85;;;3.03;;
11604;SDS011;5858;43.076;25.626;2023-04-24T07:38:19;5.57;;;3.05;;
11604;SDS011;5858;43.076;25.626;2023-04-24T07:40:50;6.07;;;3.88;;
11604;SDS011;5858;43.076;25.626;2023-04-24T07:43:19;7.70;;;4.55;;
11604;SDS011;5858;43.076;25.626;2023-04-24T07:45:50;7.10;;;5.57;;
11604;SDS011;5858;43.076;25.626;2023-04-24T07:48:21;5.82;;;3.58;;
11604;SDS011;5858;43.076;25.626;2023-04-24T07:50:51;4.68;;;3.42;;
11604;SDS011;5858;43.076;25.626;2023-04-24T07:53:18;7.07;;;4.15;;
11604;SDS011;5858;43.076;25.626;2023-04-24T07:55:49;5.22;;;3.72;;
11604;SDS011;5858;43.076;25.626;2023-04-24T07:58:16;7.07;;;4.07;;
11604;SDS011;5858;43.076;25.626;2023-04-24T08:00:43;6.45;;;3.25;;
11604;SDS011;5858;43.076;25.626;2023-04-24T08:03:17;7.28;;;4.40;;
11604;SDS011;5858;43.076;25.626;2023-04-24T08:05:46;8.63;;;5.28;;
11604;SDS011;5858;43.076;25.626;2023-04-24T08:08:25;7.05;;;4.72;;
11604;SDS011;5858;43.076;25.626;2023-04-24T08:10:52;3.97;;;3.58;;
11604;SDS011;5858;43.076;25.626;2023-04-24T08:13:20;5.57;;;3.88;;
11604;SDS011;5858;43.076;25.626;2023-04-24T08:16:15;5.93;;;3.95;;
11604;SDS011;5858;43.076;25.626;2023-04-24T08:18:42;6.00;;;3.83;;
11604;SDS011;5858;43.076;25.626;2023-04-24T08:21:11;8.05;;;4.13;;
11604;SDS011;5858;43.076;25.626;2023-04-24T08:23:42;5.22;;;3.60;;
11604;SDS011;5858;43.076;25.626;2023-04-24T08:26:09;5.00;;;3.35;;
11604;SDS011;5858;43.076;25.626;2023-04-24T08:28:37;5.18;;;3.17;;
11604;SDS011;5858;43.076;25.626;2023-04-24T08:31:04;5.90;;;3.05;;
11604;SDS011;5858;43.076;25.626;2023-04-24T08:33:31;5.47;;;2.75;;
11604;SDS011;5858;43.076;25.626;2023-04-24T08:35:59;5.82;;;2.95;;
11604;SDS011;5858;43.076;25.626;2023-04-24T08:38:28;6.78;;;3.45;;
11604;SDS011;5858;43.076;25.626;2023-04-24T08:40:56;9.15;;;3.42;;
11604;SDS011;5858;43.076;25.626;2023-04-24T08:43:25;7.20;;;3.28;;
11604;SDS011;5858;43.076;25.626;2023-04-24T08:45:55;7.57;;;3.30;;
11604;SDS011;5858;43.076;25.626;2023-04-24T08:48:24;9.25;;;7.75;;
11604;SDS011;5858;43.076;25.626;2023-04-24T08:50:56;7.40;;;4.28;;
11604;SDS011;5858;43.076;25.626;2023-04-24T08:53:24;15.75;;;6.22;;
11604;SDS011;5858;43.076;25.626;2023-04-24T08:55:54;7.28;;;4.50;;
11604;SDS011;5858;43.076;25.626;2023-04-24T08:58:22;9.15;;;4.38;;
11604;SDS011;5858;43.076;25.626;2023-04-24T09:00:51;6.45;;;3.85;;
11604;SDS011;5858;43.076;25.626;2023-04-24T09:03:21;4.55;;;3.90;;
11604;SDS011;5858;43.076;25.626;2023-04-24T09:05:49;6.07;;;3.78;;
11604;SDS011;5858;43.076;25.626;2023-04-24T09:08:17;7.72;;;4.32;;
11604;SDS011;5858;43.076;25.626;2023-04-24T09:10:45;10.00;;;4.15;;
11604;SDS011;5858;43.076;25.626;2023-04-24T09:13:14;8.13;;;4.07;;
11604;SDS011;5858;43.076;25.626;2023-04-24T09:15:42;4.47;;;3.72;;
11604;SDS011;5858;43.076;25.626;2023-04-24T09:18:09;4.78;;;3.53;;
11604;SDS011;5858;43.076;25.626;2023-04-24T09:20:51;3.80;;;3.38;;
11604;SDS011;5858;43.076;25.626;2023-04-24T09:23:25;6.32;;;3.35;;
11604;SDS011;5858;43.076;25.626;2023-04-24T09:25:54;4.45;;;3.47;;
11604;SDS011;5858;43.076;25.626;2023-04-24T09:28:29;5.40;;;2.97;;
11604;SDS011;5858;43.076;25.626;2023-04-24T09:31:07;3.35;;;2.85;;
11604;SDS011;5858;43.076;25.626;2023-04-24T09:33:36;4.22;;;3.78;;
11604;SDS011;5858;43.076;25.626;2023-04-24T09:36:04;4.75;;;3.75;;
11604;SDS011;5858;43.076;25.626;2023-04-24T09:38:35;6.88;;;3.70;;
11604;SDS011;5858;43.076;25.626;2023-04-24T09:41:04;6.75;;;4.90;;
11604;SDS011;5858;43.076;25.626;2023-04-24T09:43:38;4.95;;;3.90;;
11604;SDS011;5858;43.076;25.626;2023-04-24T09:46:06;5.95;;;4.50;;
11604;SDS011;5858;43.076;25.626;2023-04-24T09:48:35;6.05;;;3.47;;
11604;SDS011;5858;43.076;25.626;2023-04-24T09:51:04;6.45;;;4.53;;
11604;SDS011;5858;43.076;25.626;2023-04-24T09:53:35;6.63;;;4.15;;
11604;SDS011;5858;43.076;25.626;2023-04-24T09:56:12;4.30;;;2.90;;
11604;SDS011;5858;43.076;25.626;2023-04-24T09:58:41;4.00;;;3.38;;
11604;SDS011;5858;43.076;25.626;2023-04-24T10:01:08;4.60;;;2.72;;
11604;SDS011;5858;43.076;25.626;2023-04-24T10:03:38;5.35;;;2.55;;
11604;SDS011;5858;43.076;25.626;2023-04-24T10:06:11;3.25;;;2.70;;
11604;SDS011;5858;43.076;25.626;2023-04-24T10:08:39;4.50;;;3.10;;
11604;SDS011;5858;43.076;25.626;2023-04-24T10:11:06;4.85;;;2.95;;
11604;SDS011;5858;43.076;25.626;2023-04-24T10:13:36;9.15;;;3.55;;
11604;SDS011;5858;43.076;25.626;2023-04-24T10:16:05;6.32;;;5.20;;
11604;SDS011;5858;43.076;25.626;2023-04-24T10:18:33;5.93;;;3.35;;
11604;SDS011;5858;43.076;25.626;2023-04-24T10:27:20;6.03;;;3.38;;
11604;SDS011;5858;43.076;25.626;2023-04-24T10:29:49;6.80;;;3.95;;
11604;SDS011;5858;43.076;25.626;2023-04-24T10:32:21;6.68;;;3.65;;
11604;SDS011;5858;43.076;25.626;2023-04-24T10:34:48;6.10;;;3.30;;
11604;SDS011;5858;43.076;25.626;2023-04-24T10:37:18;3.97;;;2.83;;
11604;SDS011;5858;43.076;25.626;2023-04-24T10:39:47;6.03;;;3.22;;
11604;SDS011;5858;43.076;25.626;2023-04-24T10:42:16;5.22;;;2.80;;
11604;SDS011;5858;43.076;25.626;2023-04-24T10:44:43;5.20;;;2.78;;
11604;SDS011;5858;43.076;25.626;2023-04-24T10:47:15;6.15;;;3.20;;
11604;SDS011;5858;43.076;25.626;2023-04-24T10:49:43;4.68;;;3.40;;
11604;SDS011;5858;43.076;25.626;2023-04-24T10:52:11;5.30;;;3.40;;
11604;SDS011;5858;43.076;25.626;2023-04-24T10:54:41;3.70;;;3.05;;
11604;SDS011;5858;43.076;25.626;2023-04-24T10:57:26;5.00;;;3.03;;
11604;SDS011;5858;43.076;25.626;2023-04-24T11:02:46;3.83;;;3.13;;
11604;SDS011;5858;43.076;25.626;2023-04-24T11:05:20;4.13;;;3.03;;
11604;SDS011;5858;43.076;25.626;2023-04-24T11:10:39;4.13;;;2.88;;
11604;SDS011;5858;43.076;25.626;2023-04-24T11:13:07;4.00;;;2.80;;
11604;SDS011;5858;43.076;25.626;2023-04-24T11:15:35;4.90;;;3.13;;
11604;SDS011;5858;43.076;25.626;2023-04-24T11:18:02;7.78;;;3.70;;
11604;SDS011;5858;43.076;25.626;2023-04-24T11:20:30;5.38;;;2.97;;
11604;SDS011;5858;43.076;25.626;2023-04-24T11:23:00;4.35;;;3.80;;
11604;SDS011;5858;43.076;25.626;2023-04-24T11:25:31;4.13;;;2.97;;
11604;SDS011;5858;43.076;25.626;2023-04-24T11:28:05;3.05;;;2.70;;
11604;SDS011;5858;43.076;25.626;2023-04-24T11:30:32;3.55;;;2.88;;
11604;SDS011;5858;43.076;25.626;2023-04-24T11:33:04;3.90;;;2.92;;
11604;SDS011;5858;43.076;25.626;2023-04-24T11:35:39;5.40;;;2.67;;
11604;SDS011;5858;43.076;25.626;2023-04-24T11:38:06;4.28;;;3.08;;
11604;SDS011;5858;43.076;25.626;2023-04-24T11:40:45;6.03;;;3.08;;
11604;SDS011;5858;43.076;25.626;2023-04-24T11:43:14;3.25;;;2.80;;
11604;SDS011;5858;43.076;25.626;2023-04-24T11:45:47;3.85;;;2.83;;
11604;SDS011;5858;43.076;25.626;2023-04-24T11:48:18;6.53;;;3.17;;
11604;SDS011;5858;43.076;25.626;2023-04-24T11:50:47;5.95;;;3.28;;
11604;SDS011;5858;43.076;25.626;2023-04-24T11:53:15;3.75;;;3.00;;
11604;SDS011;5858;43.076;25.626;2023-04-24T11:55:42;5.60;;;2.78;;
11604;SDS011;5858;43.076;25.626;2023-04-24T11:58:12;3.83;;;2.90;;
11604;SDS011;5858;43.076;25.626;2023-04-24T12:00:39;5.93;;;3.00;;
11604;SDS011;5858;43.076;25.626;2023-04-24T12:03:07;4.35;;;2.92;;
11604;SDS011;5858;43.076;25.626;2023-04-24T12:05:35;13.35;;;4.15;;
11604;SDS011;5858;43.076;25.626;2023-04-24T12:08:04;6.95;;;2.90;;
11604;SDS011;5858;43.076;25.626;2023-04-24T12:10:32;4.32;;;2.70;;
11604;SDS011;5858;43.076;25.626;2023-04-24T12:13:00;6.45;;;3.63;;
11604;SDS011;5858;43.076;25.626;2023-04-24T12:15:27;3.97;;;3.15;;
11604;SDS011;5858;43.076;25.626;2023-04-24T12:17:55;5.10;;;2.90;;
11604;SDS011;5858;43.076;25.626;2023-04-24T12:20:24;5.05;;;3.13;;
11604;SDS011;5858;43.076;25.626;2023-04-24T12:22:54;3.20;;;2.78;;
11604;SDS011;5858;43.076;25.626;2023-04-24T12:25:24;3.30;;;2.83;;
11604;SDS011;5858;43.076;25.626;2023-04-24T12:27:54;4.38;;;3.17;;
11604;SDS011;5858;43.076;25.626;2023-04-24T12:30:39;3.58;;;2.50;;
11604;SDS011;5858;43.076;25.626;2023-04-24T12:33:08;3.17;;;2.85;;
11604;SDS011;5858;43.076;25.626;2023-04-24T12:35:35;5.75;;;2.83;;
11604;SDS011;5858;43.076;25.626;2023-04-24T12:38:06;6.75;;;2.90;;
11604;SDS011;5858;43.076;25.626;2023-04-24T12:40:35;4.50;;;2.47;;
11604;SDS011;5858;43.076;25.626;2023-04-24T12:43:02;4.70;;;2.63;;
11604;SDS011;5858;43.076;25.626;2023-04-24T12:45:40;3.25;;;2.95;;
11604;SDS011;5858;43.076;25.626;2023-04-24T12:48:07;3.60;;;2.90;;
11604;SDS011;5858;43.076;25.626;2023-04-24T12:50:34;4.20;;;2.55;;
11604;SDS011;5858;43.076;25.626;2023-04-24T12:53:01;4.65;;;2.80;;
11604;SDS011;5858;43.076;25.626;2023-04-24T12:55:28;2.80;;;2.20;;
11604;SDS011;5858;43.076;25.626;2023-04-24T12:57:56;3.85;;;2.50;;
11604;SDS011;5858;43.076;25.626;2023-04-24T13:00:24;3.70;;;2.03;;
11604;SDS011;5858;43.076;25.626;2023-04-24T13:02:51;4.00;;;2.33;;
11604;SDS011;5858;43.076;25.626;2023-04-24T13:05:18;3.78;;;2.10;;
11604;SDS011;5858;43.076;25.626;2023-04-24T13:07:47;3.13;;;2.30;;
11604;SDS011;5858;43.076;25.626;2023-04-24T13:10:14;3.95;;;2.60;;
11604;SDS011;5858;43.076;25.626;2023-04-24T13:12:41;3.47;;;2.15;;
11604;SDS011;5858;43.076;25.626;2023-04-24T13:15:12;3.40;;;2.53;;
11604;SDS011;5858;43.076;25.626;2023-04-24T13:17:39;3.10;;;2.30;;
11604;SDS011;5858;43.076;25.626;2023-04-24T13:20:06;4.97;;;2.10;;
11604;SDS011;5858;43.076;25.626;2023-04-24T13:22:34;4.32;;;2.40;;
11604;SDS011;5858;43.076;25.626;2023-04-24T13:25:03;3.10;;;2.10;;
11604;SDS011;5858;43.076;25.626;2023-04-24T13:27:31;3.03;;;2.60;;
11604;SDS011;5858;43.076;25.626;2023-04-24T13:29:58;6.68;;;3.40;;
11604;SDS011;5858;43.076;25.626;2023-04-24T13:32:27;6.63;;;2.97;;
11604;SDS011;5858;43.076;25.626;2023-04-24T13:34:58;7.07;;;2.90;;
11604;SDS011;5858;43.076;25.626;2023-04-24T13:37:25;5.32;;;3.00;;
11604;SDS011;5858;43.076;25.626;2023-04-24T13:39:52;5.88;;;2.92;;
11604;SDS011;5858;43.076;25.626;2023-04-24T13:42:20;5.82;;;3.35;;
11604;SDS011;5858;43.076;25.626;2023-04-24T13:44:47;4.68;;;2.80;;
11604;SDS011;5858;43.076;25.626;2023-04-24T13:47:14;6.10;;;3.15;;
11604;SDS011;5858;43.076;25.626;2023-04-24T13:49:42;4.45;;;3.20;;
11604;SDS011;5858;43.076;25.626;2023-04-24T13:52:09;6.53;;;3.00;;
11604;SDS011;5858;43.076;25.626;2023-04-24T13:54:38;5.50;;;3.53;;
11604;SDS011;5858;43.076;25.626;2023-04-24T13:57:05;3.55;;;3.13;;
11604;SDS011;5858;43.076;25.626;2023-04-24T13:59:32;3.90;;;3.25;;
11604;SDS011;5858;43.076;25.626;2023-04-24T14:01:59;7.25;;;3.55;;
11604;SDS011;5858;43.076;25.626;2023-04-24T14:04:26;4.47;;;3.30;;
11604;SDS011;5858;43.076;25.626;2023-04-24T14:06:54;4.72;;;3.10;;
11604;SDS011;5858;43.076;25.626;2023-04-24T14:09:22;4.82;;;3.58;;
11604;SDS011;5858;43.076;25.626;2023-04-24T14:11:49;3.72;;;2.70;;
11604;SDS011;5858;43.076;25.626;2023-04-24T14:14:16;7.53;;;3.65;;
11604;SDS011;5858;43.076;25.626;2023-04-24T14:16:46;7.55;;;4.10;;
11604;SDS011;5858;43.076;25.626;2023-04-24T14:19:13;7.45;;;3.85;;
11604;SDS011;5858;43.076;25.626;2023-04-24T14:21:40;5.13;;;3.80;;
11604;SDS011;5858;43.076;25.626;2023-04-24T14:24:09;8.10;;;4.70;;
11604;SDS011;5858;43.076;25.626;2023-04-24T14:26:36;8.25;;;4.30;;
11604;SDS011;5858;43.076;25.626;2023-04-24T14:29:09;4.97;;;3.78;;
11604;SDS011;5858;43.076;25.626;2023-04-24T14:31:35;7.60;;;3.83;;
11604;SDS011;5858;43.076;25.626;2023-04-24T14:34:02;7.32;;;3.45;;
11604;SDS011;5858;43.076;25.626;2023-04-24T14:36:29;6.68;;;3.88;;
11604;SDS011;5858;43.076;25.626;2023-04-24T14:38:56;5.18;;;3.60;;
11604;SDS011;5858;43.076;25.626;2023-04-24T14:41:25;4.45;;;3.50;;
11604;SDS011;5858;43.076;25.626;2023-04-24T14:43:52;6.53;;;3.70;;
11604;SDS011;5858;43.076;25.626;2023-04-24T14:46:19;7.22;;;3.17;;
11604;SDS011;5858;43.076;25.626;2023-04-24T14:48:49;6.78;;;4.00;;
11604;SDS011;5858;43.076;25.626;2023-04-24T14:51:19;4.88;;;3.38;;
11604;SDS011;5858;43.076;25.626;2023-04-24T14:53:46;5.60;;;3.50;;
11604;SDS011;5858;43.076;25.626;2023-04-24T14:56:13;4.20;;;3.40;;
11604;SDS011;5858;43.076;25.626;2023-04-24T14:58:41;7.50;;;3.70;;
11604;SDS011;5858;43.076;25.626;2023-04-24T15:01:08;5.75;;;3.20;;
11604;SDS011;5858;43.076;25.626;2023-04-24T15:03:35;4.72;;;3.55;;
11604;SDS011;5858;43.076;25.626;2023-04-24T15:06:02;8.48;;;4.10;;
11604;SDS011;5858;43.076;25.626;2023-04-24T15:08:29;6.85;;;3.80;;
11604;SDS011;5858;43.076;25.626;2023-04-24T15:11:01;5.90;;;3.60;;
11604;SDS011;5858;43.076;25.626;2023-04-24T15:13:30;5.78;;;3.85;;
11604;SDS011;5858;43.076;25.626;2023-04-24T15:15:59;3.80;;;3.30;;
11604;SDS011;5858;43.076;25.626;2023-04-24T15:18:27;5.35;;;4.22;;
11604;SDS011;5858;43.076;25.626;2023-04-24T15:20:54;5.07;;;3.72;;
11604;SDS011;5858;43.076;25.626;2023-04-24T15:23:21;5.85;;;4.40;;
11604;SDS011;5858;43.076;25.626;2023-04-24T15:25:48;8.32;;;4.20;;